Time;durP1;ratioP1;P1;durP2;ratioP2;P2;SDS_P1;SDS_P2;PMS_P1;PMS_P2;Temp;Humidity;BMP_temperature;BMP_pressure;BME280_temperature;BME280_humidity;BME280_pressure;Samples;Min_cycle;Max_cycle;Signal;HPM_P1;HPM_P2
2022/12/29 00:01:56;;;;;;;;;;;;;;;6.96;62.57;97603.66;5040444;28;20306;-71
2022/12/29 00:04:24;;;;;;;;;;;;;;;7.03;62.28;97608.66;5037106;28;19935;-72
2022/12/29 00:06:53;;;;;;;;;;;;;;;6.85;62.78;97601.41;5032421;28;19932;-72
2022/12/29 00:09:21;;;;;;;;;;;;;;;6.93;62.88;97606.16;5018419;28;19932;-72
2022/12/29 00:11:50;;;;;;;;;;;;;;;6.88;63.04;97604.34;5029995;28;19925;-71
2022/12/29 00:17:04;;;;;;;;;;;;;;;6.90;63.38;97595.94;5028620;28;19929;-72
2022/12/29 00:36:19;;;;;;;;;;;;;;;7.07;62.48;97579.97;5052871;28;19936;-72
2022/12/29 00:44:22;;;;;;;;;;;;;;;7.00;62.82;97577.66;5052241;28;19931;-72
2022/12/29 00:46:49;;;;;;;;;;;;;;;7.02;62.90;97566.56;5039329;28;19932;-72
2022/12/29 00:49:32;;;;;;;;;;;;;;;6.96;62.51;97562.34;5071196;28;19924;-71
2022/12/29 00:52:06;;;;;;;;;;;;;;;6.94;63.01;97578.84;5042623;28;20011;-70
2022/12/29 00:54:35;;;;;;;;;;;;;;;6.95;63.18;97572.34;5068315;28;19928;-71
2022/12/29 00:57:03;;;;;;;;;;;;;;;6.97;62.95;97564.75;5047797;28;19932;-71
2022/12/29 00:59:32;;;;;;;;;;;;;;;6.93;63.39;97569.16;5045946;28;19932;-72
2022/12/29 01:02:02;;;;;;;;;;;;;;;6.94;63.13;97568.06;5068726;28;19925;-72
2022/12/29 01:04:30;;;;;;;;;;;;;;;6.98;63.09;97574.47;5071098;28;19998;-72
2022/12/29 01:06:58;;;;;;;;;;;;;;;6.94;63.86;97568.06;5047564;28;20331;-71
2022/12/29 01:12:12;;;;;;;;;;;;;;;7.03;63.60;97573.56;5049275;28;19925;-72
2022/12/29 01:14:43;;;;;;;;;;;;;;;7.14;63.58;97583.13;5046314;28;20293;-71
2022/12/29 01:17:11;;;;;;;;;;;;;;;7.13;63.05;97578.00;5047822;28;19974;-72
2022/12/29 01:19:39;;;;;;;;;;;;;;;7.10;63.56;97571.28;5055474;28;20344;-71
2022/12/29 01:22:07;;;;;;;;;;;;;;;7.31;62.70;97567.13;5046867;28;19924;-72
2022/12/29 01:27:51;;;;;;;;;;;;;;;7.15;63.71;97549.59;5070660;28;19924;-72
2022/12/29 01:30:21;;;;;;;;;;;;;;;7.21;63.56;97547.59;5049643;28;19924;-71
2022/12/29 01:32:50;;;;;;;;;;;;;;;7.21;63.45;97542.19;5050875;28;20032;-71
2022/12/29 01:35:19;;;;;;;;;;;;;;;7.19;63.39;97541.69;5044036;28;20011;-71
2022/12/29 01:38:12;;;;;;;;;;;;;;;7.18;63.19;97540.09;5065087;28;19936;-71
2022/12/29 01:40:46;;;;;;;;;;;;;;;7.17;63.49;97539.28;5044482;28;20390;-71
2022/12/29 01:43:15;;;;;;;;;;;;;;;7.20;63.73;97533.28;5045854;28;19925;-71
2022/12/29 01:45:46;;;;;;;;;;;;;;;7.46;62.64;97535.53;5063086;28;19925;-71
2022/12/29 01:48:14;;;;;;;;;;;;;;;7.31;62.76;97529.31;5063600;28;19931;-71
2022/12/29 01:50:44;;;;;;;;;;;;;;;7.30;63.29;97530.41;5067533;28;19924;-71
2022/12/29 01:53:12;;;;;;;;;;;;;;;7.29;63.10;97530.69;5068844;28;19928;-72
2022/12/29 01:55:41;;;;;;;;;;;;;;;7.35;63.16;97526.81;5069622;28;19947;-71
2022/12/29 01:58:09;;;;;;;;;;;;;;;7.28;62.99;97523.69;5054290;28;19931;-72
2022/12/29 02:00:38;;;;;;;;;;;;;;;7.30;63.48;97524.22;5049204;28;19931;-71
2022/12/29 02:03:07;;;;;;;;;;;;;;;7.37;62.86;97521.09;5050719;28;19924;-71
2022/12/29 02:05:37;;;;;;;;;;;;;;;7.49;62.64;97518.69;5053756;28;19924;-72
2022/12/29 02:08:05;;;;;;;;;;;;;;;7.50;62.36;97504.88;5050373;28;19925;-72
2022/12/29 02:10:34;;;;;;;;;;;;;;;7.50;62.54;97499.47;5070277;28;19925;-72
2022/12/29 02:13:05;;;;;;;;;;;;;;;7.41;62.38;97500.50;5049689;28;19931;-71
2022/12/29 02:16:00;;;;;;;;;;;;;;;7.43;63.39;97498.28;5044634;28;20544;-72
2022/12/29 02:18:33;;;;;;;;;;;;;;;7.41;63.02;97497.78;5052826;28;19924;-72
2022/12/29 02:21:12;;;;;;;;;;;;;;;7.48;62.16;97498.97;5054640;28;19924;-72
2022/12/29 02:23:46;;;;;;;;;;;;;;;7.41;63.10;97495.88;5052758;28;20019;-72
2022/12/29 02:26:39;;;;;;;;;;;;;;;7.45;62.88;97496.84;5066694;28;19924;-72
2022/12/29 02:29:22;;;;;;;;;;;;;;;7.45;63.06;97496.84;5068688;28;19932;-72
2022/12/29 02:31:52;;;;;;;;;;;;;;;7.42;62.64;97496.69;5044779;28;19924;-71
2022/12/29 02:34:22;;;;;;;;;;;;;;;7.43;62.40;97487.47;5060678;28;19929;-72
2022/12/29 02:37:17;;;;;;;;;;;;;;;7.47;63.03;97491.19;5025666;28;19948;-72
2022/12/29 02:40:10;;;;;;;;;;;;;;;7.57;61.88;97499.88;5032956;28;19925;-71
2022/12/29 02:43:03;;;;;;;;;;;;;;;7.50;63.15;97499.47;5027042;28;19932;-72
2022/12/29 02:45:32;;;;;;;;;;;;;;;7.53;62.39;97493.47;5051962;28;20283;-71
2022/12/29 02:48:04;;;;;;;;;;;;;;;7.56;62.11;97492.06;5026114;28;20350;-72
2022/12/29 02:50:33;;;;;;;;;;;;;;;7.56;62.49;97492.88;5033887;28;19924;-70
2022/12/29 02:53:05;;;;;;;;;;;;;;;7.56;61.82;97486.66;5032289;28;20011;-72
2022/12/29 02:55:33;;;;;;;;;;;;;;;7.56;61.96;97482.06;5023228;28;20291;-71
2022/12/29 02:58:20;;;;;;;;;;;;;;;7.51;62.69;97490.28;5041949;28;19931;-71
2022/12/29 03:00:54;;;;;;;;;;;;;;;7.42;62.63;97492.06;5031312;28;21610;-71
2022/12/29 03:04:16;;;;;;;;;;;;;;;7.52;62.30;97478.34;5045908;28;20393;-72
2022/12/29 03:06:51;;;;;;;;;;;;;;;7.40;62.57;97482.66;5024871;28;20020;-71
2022/12/29 03:09:22;;;;;;;;;;;;;;;7.37;62.92;97492.16;5023433;28;19925;-72
2022/12/29 03:12:11;;;;;;;;;;;;;;;7.37;62.57;97473.25;5026532;28;19925;-72
2022/12/29 03:17:39;;;;;;;;;;;;;;;7.36;62.63;97477.06;5026188;28;20414;-71
2022/12/29 03:20:09;;;;;;;;;;;;;;;7.35;63.16;97475.47;5016145;28;19925;-71
2022/12/29 03:22:42;;;;;;;;;;;;;;;7.34;63.36;97479.25;5029849;28;19929;-71
2022/12/29 03:25:14;;;;;;;;;;;;;;;7.34;63.32;97480.03;5020224;28;20415;-71
2022/12/29 03:27:43;;;;;;;;;;;;;;;7.43;62.65;97473.94;5034268;28;19941;-72
2022/12/29 03:30:12;;;;;;;;;;;;;;;7.40;64.27;97482.66;5042708;28;19999;-71
2022/12/29 03:32:41;;;;;;;;;;;;;;;7.37;63.88;97472.47;5033428;28;20493;-71
2022/12/29 03:35:14;;;;;;;;;;;;;;;7.36;63.30;97466.25;5046468;28;19929;-72
2022/12/29 03:37:44;;;;;;;;;;;;;;;7.39;63.29;97467.53;5061287;28;19979;-71
2022/12/29 03:40:13;;;;;;;;;;;;;;;7.52;62.98;97474.84;5052132;28;19928;-72
2022/12/29 03:42:47;;;;;;;;;;;;;;;7.49;62.78;97464.63;5048385;28;19932;-71
2022/12/29 03:45:15;;;;;;;;;;;;;;;7.47;62.96;97462.25;5044119;28;19924;-71
2022/12/29 03:48:10;;;;;;;;;;;;;;;7.48;62.83;97457.63;5053268;28;19924;-71
2022/12/29 03:50:42;;;;;;;;;;;;;;;7.51;63.13;97463.25;5059350;28;19925;-71
2022/12/29 03:53:10;;;;;;;;;;;;;;;7.54;62.26;97456.41;5052014;28;19960;-72
2022/12/29 03:55:42;;;;;;;;;;;;;;;7.52;62.39;97462.13;5052539;28;20289;-71
2022/12/29 03:58:11;;;;;;;;;;;;;;;7.60;62.23;97460.63;5061256;28;19956;-72
2022/12/29 04:01:21;;;;;;;;;;;;;;;7.57;62.43;97458.53;5055741;28;19931;-71
2022/12/29 04:03:54;;;;;;;;;;;;;;;7.63;61.61;97464.63;5035761;28;19928;-71
2022/12/29 04:06:24;;;;;;;;;;;;;;;7.66;61.54;97456.69;5051784;28;19925;-72
2022/12/29 04:09:00;;;;;;;;;;;;;;;7.61;61.61;97468.41;5036117;28;19925;-72
2022/12/29 04:11:32;;;;;;;;;;;;;;;7.54;62.59;97459.13;5052370;28;19931;-72
2022/12/29 04:14:01;;;;;;;;;;;;;;;7.51;62.79;97465.13;5055983;28;19925;-72
2022/12/29 04:16:33;;;;;;;;;;;;;;;7.51;62.21;97459.72;5042492;28;20341;-72
2022/12/29 04:19:02;;;;;;;;;;;;;;;7.46;62.44;97457.94;5048147;28;20381;-70
2022/12/29 04:21:55;;;;;;;;;;;;;;;7.57;61.30;97462.03;5065727;28;20002;-72
2022/12/29 04:24:27;;;;;;;;;;;;;;;7.63;61.56;97470.84;5047675;28;19925;-72
2022/12/29 04:26:55;;;;;;;;;;;;;;;7.50;62.28;97466.22;5054784;28;19928;-71
2022/12/29 04:29:26;;;;;;;;;;;;;;;7.45;62.03;97469.03;5061156;28;19925;-72
2022/12/29 04:32:17;;;;;;;;;;;;;;;7.40;62.14;97466.44;5051017;28;19929;-71
2022/12/29 04:34:49;;;;;;;;;;;;;;;7.39;62.59;97472.94;5041417;28;19955;-72
2022/12/29 04:37:20;;;;;;;;;;;;;;;7.41;62.35;97473.47;5037649;28;19925;-71
2022/12/29 04:42:46;;;;;;;;;;;;;;;7.37;61.95;97462.44;5062033;28;19967;-71
2022/12/29 04:45:15;;;;;;;;;;;;;;;7.35;61.81;97451.16;5051350;28;19932;-72
2022/12/29 04:47:54;;;;;;;;;;;;;;;7.45;61.90;97455.53;5022885;28;20428;-72
2022/12/29 04:50:49;;;;;;;;;;;;;;;7.37;61.87;97448.13;5030836;28;19925;-72
2022/12/29 04:53:20;;;;;;;;;;;;;;;7.42;61.94;97456.13;5039277;28;20418;-70
2022/12/29 04:56:13;;;;;;;;;;;;;;;7.41;62.09;97459.94;5028920;28;19964;-71
2022/12/29 04:58:43;;;;;;;;;;;;;;;7.42;62.40;97462.34;5031349;28;20306;-71
2022/12/29 05:01:11;;;;;;;;;;;;;;;7.42;61.92;97451.53;5025712;28;19925;-71
2022/12/29 05:03:39;;;;;;;;;;;;;;;7.38;61.97;97453.22;5024125;28;20008;-71
2022/12/29 05:06:08;;;;;;;;;;;;;;;7.31;62.49;97447.44;5035950;28;19929;-72
2022/12/29 05:08:39;;;;;;;;;;;;;;;7.23;62.86;97451.63;5050148;28;19924;-72
2022/12/29 05:11:07;;;;;;;;;;;;;;;7.36;62.16;97447.34;5031301;28;19925;-72
2022/12/29 05:13:37;;;;;;;;;;;;;;;7.20;63.65;97456.84;5032186;28;19931;-72
2022/12/29 05:16:08;;;;;;;;;;;;;;;7.17;62.64;97458.25;5053111;28;19925;-71
2022/12/29 05:18:35;;;;;;;;;;;;;;;7.22;63.80;97466.25;5026318;28;19925;-72
2022/12/29 05:21:04;;;;;;;;;;;;;;;7.33;62.57;97472.25;5033044;28;19965;-71
2022/12/29 05:23:32;;;;;;;;;;;;;;;7.32;63.00;97471.44;5024725;28;20374;-72
2022/12/29 05:26:05;;;;;;;;;;;;;;;7.51;61.75;97462.41;5024878;28;19929;-72
2022/12/29 05:28:47;;;;;;;;;;;;;;;7.46;61.94;97459.84;5045304;28;20002;-72
2022/12/29 05:31:19;;;;;;;;;;;;;;;7.43;63.18;97468.53;5025243;28;20298;-71
2022/12/29 05:33:48;;;;;;;;;;;;;;;7.44;62.27;97462.03;5029564;28;19925;-72
2022/12/29 05:36:16;;;;;;;;;;;;;;;7.61;61.71;97456.81;5046096;28;19991;-72
2022/12/29 05:38:49;;;;;;;;;;;;;;;7.50;62.69;97460.81;5045710;28;19955;-72
2022/12/29 05:41:19;;;;;;;;;;;;;;;7.41;62.01;97454.53;5053529;28;19929;-72
2022/12/29 05:43:56;;;;;;;;;;;;;;;7.29;61.93;97439.63;5057374;28;19924;-72
2022/12/29 05:46:30;;;;;;;;;;;;;;;7.22;62.84;97447.34;5055516;28;20248;-72
2022/12/29 05:49:25;;;;;;;;;;;;;;;7.15;63.52;97446.16;5022613;28;19957;-70
2022/12/29 05:51:58;;;;;;;;;;;;;;;7.17;63.72;97447.44;5039538;28;19925;-72
2022/12/29 05:54:26;;;;;;;;;;;;;;;7.15;63.22;97448.84;5037689;28;19979;-72
2022/12/29 05:56:57;;;;;;;;;;;;;;;7.05;64.10;97461.44;5051946;28;19924;-72
2022/12/29 05:59:26;;;;;;;;;;;;;;;7.05;63.91;97477.66;5051933;28;19925;-71
2022/12/29 06:01:55;;;;;;;;;;;;;;;6.98;64.46;97474.53;5044533;28;20387;-72
2022/12/29 06:04:23;;;;;;;;;;;;;;;6.99;64.02;97472.66;5065207;28;19987;-72
2022/12/29 06:06:52;;;;;;;;;;;;;;;6.96;64.41;97481.34;5049900;28;19932;-71
2022/12/29 06:09:28;;;;;;;;;;;;;;;6.95;63.53;97477.03;5043173;28;19931;-72
2022/12/29 06:11:58;;;;;;;;;;;;;;;6.91;64.30;97465.22;5040797;28;19976;-72
2022/12/29 06:14:27;;;;;;;;;;;;;;;6.93;64.13;97463.03;5046544;28;19925;-72
2022/12/29 06:16:55;;;;;;;;;;;;;;;6.94;63.14;97459.22;5054940;28;19959;-72
2022/12/29 06:19:23;;;;;;;;;;;;;;;6.92;63.52;97456.00;5049001;28;19924;-73
2022/12/29 06:21:52;;;;;;;;;;;;;;;6.88;63.71;97455.03;5042102;28;19935;-71
2022/12/29 06:27:14;;;;;;;;;;;;;;;6.86;63.37;97452.59;5038199;28;20386;-72
2022/12/29 06:29:43;;;;;;;;;;;;;;;6.92;63.50;97462.22;5062396;28;19924;-72
2022/12/29 06:32:11;;;;;;;;;;;;;;;6.93;63.16;97463.03;5035007;28;19971;-71
2022/12/29 06:34:44;;;;;;;;;;;;;;;6.93;63.81;97458.44;5040781;28;19967;-73
2022/12/29 06:37:14;;;;;;;;;;;;;;;6.92;64.26;97466.81;5042359;28;20290;-72
2022/12/29 06:39:43;;;;;;;;;;;;;;;7.19;62.00;97455.22;5045995;28;20014;-71
2022/12/29 06:42:55;;;;;;;;;;;;;;;7.06;62.45;97460.34;5053938;28;19963;-70
2022/12/29 06:45:47;;;;;;;;;;;;;;;7.27;61.21;97462.66;5053148;28;20116;-71
2022/12/29 06:48:41;;;;;;;;;;;;;;;7.17;61.48;97469.03;5050488;28;19947;-71
2022/12/29 06:51:10;;;;;;;;;;;;;;;7.09;61.86;97453.53;5053351;28;19929;-72
2022/12/29 06:53:38;;;;;;;;;;;;;;;7.15;61.61;97457.75;5052509;28;19933;-72
2022/12/29 06:56:08;;;;;;;;;;;;;;;7.05;61.62;97464.13;5054421;28;19947;-72
2022/12/29 06:58:38;;;;;;;;;;;;;;;7.08;61.78;97471.66;5032555;28;19962;-72
2022/12/29 07:01:08;;;;;;;;;;;;;;;7.20;60.38;97468.47;5054347;28;19940;-72
2022/12/29 07:03:37;;;;;;;;;;;;;;;7.11;60.99;97467.53;5050632;28;19928;-72
2022/12/29 07:06:05;;;;;;;;;;;;;;;7.12;60.35;97455.63;5043023;28;19928;-72
2022/12/29 07:08:33;;;;;;;;;;;;;;;7.04;60.41;97464.44;5053222;28;19956;-72
2022/12/29 07:11:01;;;;;;;;;;;;;;;7.06;60.72;97473.03;5055336;28;19932;-72
2022/12/29 07:13:29;;;;;;;;;;;;;;;7.25;59.99;97462.94;5053157;28;19925;-72
2022/12/29 07:15:58;;;;;;;;;;;;;;;7.36;59.61;97471.66;5056163;28;19996;-72
2022/12/29 07:18:26;;;;;;;;;;;;;;;7.24;60.25;97474.03;5053090;28;20007;-72
2022/12/29 07:20:54;;;;;;;;;;;;;;;7.39;60.19;97470.25;5054203;28;20417;-72
2022/12/29 07:23:22;;;;;;;;;;;;;;;7.30;60.27;97470.16;5056457;28;19929;-71
2022/12/29 07:25:50;;;;;;;;;;;;;;;7.33;60.18;97483.84;5052684;28;19925;-72
2022/12/29 07:28:18;;;;;;;;;;;;;;;7.58;59.25;97489.88;5054320;28;19929;-72
2022/12/29 07:30:46;;;;;;;;;;;;;;;7.60;58.88;97491.16;5057320;28;19956;-72
2022/12/29 07:33:16;;;;;;;;;;;;;;;7.63;59.85;97492.47;5058541;28;19929;-72
2022/12/29 07:35:46;;;;;;;;;;;;;;;7.79;59.00;97501.84;5035811;28;19931;-71
2022/12/29 07:38:16;;;;;;;;;;;;;;;7.71;59.58;97504.47;5050118;28;19929;-72
2022/12/29 07:40:44;;;;;;;;;;;;;;;7.67;59.44;97498.03;5050976;28;20047;-71
2022/12/29 07:43:12;;;;;;;;;;;;;;;7.92;58.32;97492.09;5054282;28;19936;-72
2022/12/29 07:45:48;;;;;;;;;;;;;;;7.61;59.22;97490.03;5045483;28;20457;-72
2022/12/29 07:48:24;;;;;;;;;;;;;;;7.61;59.92;97500.84;5041340;28;20266;-72
2022/12/29 07:50:54;;;;;;;;;;;;;;;7.49;60.41;97497.88;5056585;28;19925;-64
2022/12/29 07:53:22;;;;;;;;;;;;;;;7.70;59.20;97503.66;5058700;28;20006;-64
2022/12/29 07:55:50;;;;;;;;;;;;;;;7.61;59.77;97500.06;5053304;28;19925;-64
2022/12/29 07:58:18;;;;;;;;;;;;;;;7.67;59.33;97503.44;5056134;28;19994;-64
2022/12/29 08:00:46;;;;;;;;;;;;;;;7.71;60.16;97499.84;5054331;28;19929;-64
2022/12/29 08:03:14;;;;;;;;;;;;;;;7.83;59.41;97492.03;5052769;28;20036;-64
2022/12/29 08:05:44;;;;;;;;;;;;;;;7.77;59.06;97493.22;5054302;28;19956;-64
2022/12/29 08:08:12;;;;;;;;;;;;;;;7.90;59.10;97482.69;5052152;28;19929;-64
2022/12/29 08:10:40;;;;;;;;;;;;;;;7.93;59.68;97482.06;5054421;28;19928;-64
2022/12/29 08:13:07;;;;;;;;;;;;;;;7.97;59.30;97478.47;5057657;28;19925;-64
2022/12/29 08:15:42;;;;;;;;;;;;;;;8.00;58.47;97483.28;5068131;28;19936;-64
2022/12/29 08:18:10;;;;;;;;;;;;;;;7.99;58.92;97480.84;5054714;28;19925;-63
2022/12/29 08:20:38;;;;;;;;;;;;;;;7.99;59.07;97486.28;5071329;28;19924;-63
2022/12/29 08:23:07;;;;;;;;;;;;;;;8.03;59.61;97495.38;5051861;28;19932;-63
2022/12/29 08:25:35;;;;;;;;;;;;;;;8.12;58.90;97493.56;5054828;28;19925;-64
2022/12/29 08:28:28;;;;;;;;;;;;;;;8.10;58.73;97495.78;5059832;28;19924;-64
2022/12/29 08:30:57;;;;;;;;;;;;;;;8.24;58.77;97485.69;5058399;28;19925;-64
2022/12/29 08:33:28;;;;;;;;;;;;;;;8.30;59.01;97498.00;5067102;28;19967;-64
2022/12/29 08:35:59;;;;;;;;;;;;;;;8.33;59.44;97500.09;5067228;28;20335;-64
2022/12/29 08:38:29;;;;;;;;;;;;;;;8.49;58.28;97497.06;5066813;28;19924;-64
2022/12/29 08:40:59;;;;;;;;;;;;;;;8.46;58.55;97513.91;5039208;28;19925;-64
2022/12/29 08:43:27;;;;;;;;;;;;;;;8.46;58.62;97512.00;5065375;28;19939;-64
2022/12/29 08:45:56;;;;;;;;;;;;;;;8.55;58.21;97509.38;5042065;28;19925;-64
2022/12/29 08:48:24;;;;;;;;;;;;;;;8.66;57.78;97508.81;5048366;28;19928;-64
2022/12/29 08:50:52;;;;;;;;;;;;;;;8.73;57.96;97518.41;5061139;28;19975;-64
2022/12/29 08:56:14;;;;;;;;;;;;;;;8.88;57.34;97505.28;5064153;28;20364;-65
2022/12/29 08:58:49;;;;;;;;;;;;;;;8.96;57.19;97513.78;5052518;28;19956;-64
2022/12/29 09:01:18;;;;;;;;;;;;;;;9.05;56.81;97499.16;5051457;28;19925;-64
2022/12/29 09:04:14;;;;;;;;;;;;;;;9.03;56.74;97506.00;5061874;28;20388;-64
2022/12/29 09:06:44;;;;;;;;;;;;;;;9.11;56.87;97497.94;5061734;28;19935;-66
2022/12/29 09:09:13;;;;;;;;;;;;;;;9.03;57.76;97509.53;5064383;28;19924;-65
2022/12/29 09:11:42;;;;;;;;;;;;;;;9.13;57.52;97506.53;5060277;28;19970;-64
2022/12/29 09:14:10;;;;;;;;;;;;;;;9.23;57.23;97491.13;5068452;28;20392;-64
2022/12/29 09:16:38;;;;;;;;;;;;;;;9.31;57.55;97496.56;5053053;28;19939;-64
2022/12/29 09:19:06;;;;;;;;;;;;;;;9.43;57.00;97502.22;5042828;28;19939;-64
2022/12/29 09:21:34;;;;;;;;;;;;;;;9.42;57.30;97506.03;5062690;28;19956;-64
2022/12/29 09:24:03;;;;;;;;;;;;;;;9.58;56.40;97502.88;5062963;28;19929;-65
2022/12/29 09:26:32;;;;;;;;;;;;;;;9.65;56.46;97511.38;5048395;28;20535;-64
2022/12/29 09:29:01;;;;;;;;;;;;;;;9.71;56.51;97508.19;5044431;28;19930;-64
2022/12/29 09:31:29;;;;;;;;;;;;;;;9.75;57.17;97513.81;5062530;28;19929;-63
2022/12/29 09:33:57;;;;;;;;;;;;;;;9.82;55.96;97514.13;5063191;28;19928;-67
2022/12/29 09:36:26;;;;;;;;;;;;;;;9.84;56.80;97514.59;5062192;28;19931;-64
2022/12/29 09:38:54;;;;;;;;;;;;;;;9.87;56.46;97508.56;5062782;28;19929;-64
2022/12/29 09:41:24;;;;;;;;;;;;;;;9.96;55.61;97512.09;5072695;28;19925;-63
2022/12/29 09:43:56;;;;;;;;;;;;;;;9.99;55.59;97513.38;5063924;28;20873;-64
2022/12/29 09:46:26;;;;;;;;;;;;;;;9.98;56.36;97507.13;5045649;28;19929;-64
2022/12/29 09:48:57;;;;;;;;;;;;;;;10.06;55.99;97512.88;5066342;28;19925;-63
2022/12/29 09:51:25;;;;;;;;;;;;;;;9.99;56.69;97502.50;5069289;28;19925;-64
2022/12/29 09:53:54;;;;;;;;;;;;;;;9.96;56.79;97498.53;5044022;28;19951;-64
2022/12/29 09:56:22;;;;;;;;;;;;;;;10.06;56.52;97502.03;5049040;28;20377;-64
2022/12/29 09:58:51;;;;;;;;;;;;;;;10.11;56.27;97501.88;5055200;28;20338;-64
2022/12/29 10:04:16;;;;;;;;;;;;;;;10.00;56.80;97500.59;5070646;28;19925;-64
2022/12/29 10:06:48;;;;;;;;;;;;;;;10.09;56.79;97494.06;5069362;28;19939;-63
2022/12/29 10:09:38;;;;;;;;;;;;;;;10.25;56.46;97488.19;5054504;28;19956;-64
2022/12/29 10:12:10;;;;;;;;;;;;;;;10.14;56.79;97493.09;5059960;28;19925;-64
2022/12/29 10:14:43;;;;;;;;;;;;;;;10.28;56.42;97485.66;5065376;28;19931;-64
2022/12/29 10:17:13;;;;;;;;;;;;;;;10.15;57.05;97481.94;5069371;28;19967;-64
2022/12/29 10:19:49;;;;;;;;;;;;;;;10.03;57.40;97495.34;5069997;28;19931;-64
2022/12/29 10:22:20;;;;;;;;;;;;;;;10.11;57.27;97485.59;5045775;28;19931;-64
2022/12/29 10:24:48;;;;;;;;;;;;;;;9.96;57.67;97481.44;5067611;28;19924;-64
2022/12/29 10:27:16;;;;;;;;;;;;;;;9.98;57.84;97481.91;5059358;28;20377;-64
2022/12/29 10:29:46;;;;;;;;;;;;;;;9.92;58.04;97486.69;5069310;28;19936;-64
2022/12/29 10:32:17;;;;;;;;;;;;;;;9.97;57.71;97483.84;5063315;28;19928;-64
2022/12/29 10:34:46;;;;;;;;;;;;;;;9.98;58.33;97471.06;5056177;28;19925;-64
2022/12/29 10:37:16;;;;;;;;;;;;;;;10.01;58.43;97475.03;5062185;28;19955;-64
2022/12/29 10:40:10;;;;;;;;;;;;;;;10.08;58.70;97478.09;5065741;28;20567;-64
2022/12/29 10:43:03;;;;;;;;;;;;;;;10.17;58.09;97460.72;5059114;28;19924;-64
2022/12/29 10:45:37;;;;;;;;;;;;;;;10.22;57.71;97463.22;5065988;28;19939;-64
2022/12/29 10:48:07;;;;;;;;;;;;;;;10.26;58.01;97463.44;5042141;28;20514;-64
2022/12/29 10:50:35;;;;;;;;;;;;;;;10.37;57.71;97453.84;5040287;28;20166;-65
2022/12/29 10:53:07;;;;;;;;;;;;;;;10.32;58.50;97448.56;5053881;28;20063;-64
2022/12/29 10:56:00;;;;;;;;;;;;;;;10.28;58.41;97457.69;5053082;28;19928;-64
2022/12/29 10:58:28;;;;;;;;;;;;;;;10.44;57.82;97445.22;5053413;28;19925;-64
2022/12/29 11:03:58;;;;;;;;;;;;;;;10.52;58.01;97454.47;5059239;28;20672;-64
2022/12/29 11:06:28;;;;;;;;;;;;;;;10.62;57.46;97446.00;5043728;28;19940;-64
2022/12/29 11:08:59;;;;;;;;;;;;;;;10.62;57.45;97446.78;5054641;28;20408;-64
2022/12/29 11:11:28;;;;;;;;;;;;;;;10.73;57.21;97447.25;5058384;28;19928;-65
2022/12/29 11:14:00;;;;;;;;;;;;;;;10.80;57.16;97447.53;5039408;28;20436;-65
2022/12/29 11:16:30;;;;;;;;;;;;;;;10.79;57.27;97447.88;5042608;28;20404;-64
2022/12/29 11:18:58;;;;;;;;;;;;;;;10.99;56.58;97441.75;5056308;28;19990;-63
2022/12/29 11:21:28;;;;;;;;;;;;;;;10.97;56.33;97439.34;5062126;28;19925;-64
2022/12/29 11:23:57;;;;;;;;;;;;;;;11.08;56.97;97453.38;5035996;28;20302;-63
2022/12/29 11:26:29;;;;;;;;;;;;;;;11.20;56.29;97450.78;5058318;28;20382;-64
2022/12/29 11:29:05;;;;;;;;;;;;;;;11.25;56.06;97449.78;5055751;28;19925;-64
2022/12/29 11:31:38;;;;;;;;;;;;;;;11.41;55.40;97439.97;5047032;28;19924;-65
2022/12/29 11:34:07;;;;;;;;;;;;;;;11.37;55.23;97441.72;5058041;28;19956;-64
2022/12/29 11:36:36;;;;;;;;;;;;;;;11.38;55.66;97456.91;5059995;28;19925;-63
2022/12/29 11:39:05;;;;;;;;;;;;;;;11.39;55.70;97457.72;5039419;28;19931;-68
2022/12/29 11:41:42;;;;;;;;;;;;;;;11.36;56.05;97455.66;5053112;28;20019;-64
2022/12/29 11:44:12;;;;;;;;;;;;;;;11.37;56.13;97459.97;5066386;28;20011;-65
2022/12/29 11:46:41;;;;;;;;;;;;;;;11.39;56.37;97447.63;5055965;28;19936;-64
2022/12/29 11:49:10;;;;;;;;;;;;;;;11.44;56.34;97452.88;5042539;28;19966;-64
2022/12/29 11:51:39;;;;;;;;;;;;;;;11.49;55.83;97447.25;5061374;28;19963;-64
2022/12/29 11:54:07;;;;;;;;;;;;;;;11.67;55.43;97442.53;5056027;28;19932;-66
2022/12/29 11:57:08;;;;;;;;;;;;;;;11.72;55.17;97444.28;5052147;28;19951;-64
2022/12/29 11:59:43;;;;;;;;;;;;;;;11.72;55.37;97449.72;5056467;28;19955;-63
2022/12/29 12:02:34;;;;;;;;;;;;;;;11.73;55.27;97445.88;5051016;28;19933;-63
2022/12/29 12:05:11;;;;;;;;;;;;;;;11.69;55.62;97434.03;5040503;28;19955;-63
2022/12/29 12:07:40;;;;;;;;;;;;;;;11.63;55.75;97438.09;5060101;28;19948;-63
2022/12/29 12:10:12;;;;;;;;;;;;;;;11.73;55.39;97438.50;5038765;28;20016;-63
2022/12/29 12:12:42;;;;;;;;;;;;;;;11.75;55.82;97440.88;5043057;28;19935;-63
2022/12/29 12:15:13;;;;;;;;;;;;;;;11.77;55.61;97446.78;5048126;28;20652;-63
2022/12/29 12:17:51;;;;;;;;;;;;;;;11.93;55.17;97434.25;5042842;28;19964;-64
2022/12/29 12:20:21;;;;;;;;;;;;;;;11.93;55.55;97433.41;5060428;28;19924;-64
2022/12/29 12:22:52;;;;;;;;;;;;;;;11.94;55.39;97432.31;5040396;28;19975;-63
2022/12/29 12:25:21;;;;;;;;;;;;;;;11.96;55.10;97432.75;5058347;28;19924;-63
2022/12/29 12:27:52;;;;;;;;;;;;;;;11.99;55.24;97432.91;5056979;28;19928;-64
2022/12/29 12:30:21;;;;;;;;;;;;;;;11.87;55.52;97430.09;5058505;28;19928;-64
2022/12/29 12:32:50;;;;;;;;;;;;;;;11.86;56.00;97428.50;5042875;28;19928;-64
2022/12/29 12:35:20;;;;;;;;;;;;;;;11.87;56.39;97438.25;5064199;28;19931;-64
2022/12/29 12:38:16;;;;;;;;;;;;;;;11.78;56.75;97438.31;5057396;28;19932;-65
2022/12/29 12:40:52;;;;;;;;;;;;;;;11.78;56.57;97432.06;5044464;28;20017;-63
2022/12/29 12:43:29;;;;;;;;;;;;;;;11.84;56.63;97433.50;5060684;28;20009;-63
2022/12/29 12:46:02;;;;;;;;;;;;;;;11.83;57.18;97439.28;5059766;28;19933;-63
2022/12/29 12:48:36;;;;;;;;;;;;;;;11.81;57.04;97445.00;5044759;28;19932;-63
2022/12/29 12:51:06;;;;;;;;;;;;;;;11.75;57.07;97436.22;5067750;28;20305;-64
2022/12/29 12:53:41;;;;;;;;;;;;;;;11.65;57.71;97446.69;5067782;28;19986;-63
2022/12/29 12:56:30;;;;;;;;;;;;;;;11.65;57.96;97446.69;5062489;28;19924;-64
2022/12/29 12:59:00;;;;;;;;;;;;;;;11.70;57.83;97441.88;5068839;28;19929;-64
2022/12/29 13:01:39;;;;;;;;;;;;;;;11.77;57.40;97427.72;5065835;28;19925;-64
2022/12/29 13:04:20;;;;;;;;;;;;;;;11.69;57.88;97434.84;5064819;28;20464;-64
2022/12/29 13:06:49;;;;;;;;;;;;;;;11.61;58.11;97429.44;5068727;28;19925;-63
2022/12/29 13:09:22;;;;;;;;;;;;;;;11.61;58.36;97445.75;5064704;28;19933;-64
2022/12/29 13:11:57;;;;;;;;;;;;;;;11.57;58.56;97447.56;5049692;28;19963;-64
2022/12/29 13:14:29;;;;;;;;;;;;;;;11.59;58.38;97456.97;5067667;28;19924;-65
2022/12/29 13:16:59;;;;;;;;;;;;;;;11.49;58.60;97458.16;5068467;28;19924;-65
2022/12/29 13:19:28;;;;;;;;;;;;;;;11.51;58.46;97446.97;5058493;28;19932;-64
2022/12/29 13:21:59;;;;;;;;;;;;;;;11.55;59.28;97456.03;5072377;28;19928;-64
2022/12/29 13:24:35;;;;;;;;;;;;;;;11.49;59.49;97444.53;5065639;28;19930;-63
2022/12/29 13:27:05;;;;;;;;;;;;;;;11.32;60.24;97452.78;5063456;28;20263;-64
2022/12/29 13:29:35;;;;;;;;;;;;;;;11.35;60.43;97454.09;5062782;28;20378;-63
2022/12/29 13:32:08;;;;;;;;;;;;;;;11.22;60.74;97451.22;5067427;28;20444;-63
2022/12/29 13:34:41;;;;;;;;;;;;;;;11.33;60.65;97456.31;5067825;28;19954;-63
2022/12/29 13:37:10;;;;;;;;;;;;;;;11.20;60.79;97455.41;5064571;28;19928;-63
2022/12/29 13:39:38;;;;;;;;;;;;;;;11.14;61.29;97456.72;5059028;28;19924;-66
2022/12/29 13:45:01;;;;;;;;;;;;;;;11.07;60.93;97456.41;5065584;28;20255;-64
2022/12/29 13:47:31;;;;;;;;;;;;;;;11.13;60.88;97455.09;5047911;28;19928;-63
2022/12/29 13:50:00;;;;;;;;;;;;;;;11.16;60.24;97449.81;5067773;28;19924;-63
2022/12/29 13:52:29;;;;;;;;;;;;;;;11.16;60.38;97462.63;5069705;28;19928;-63
2022/12/29 13:55:01;;;;;;;;;;;;;;;11.09;60.52;97462.34;5069595;28;19939;-63
2022/12/29 13:57:33;;;;;;;;;;;;;;;11.01;61.16;97464.75;5068474;28;19928;-63
2022/12/29 14:00:03;;;;;;;;;;;;;;;11.05;60.92;97462.19;5061581;28;19924;-63
2022/12/29 14:02:42;;;;;;;;;;;;;;;11.06;60.70;97476.56;5063251;28;20377;-63
2022/12/29 14:05:25;;;;;;;;;;;;;;;11.00;60.96;97478.66;5056754;28;19931;-63
2022/12/29 14:07:57;;;;;;;;;;;;;;;10.89;61.13;97478.22;5045802;28;19932;-63
2022/12/29 14:10:27;;;;;;;;;;;;;;;10.82;61.65;97472.50;5065707;28;19936;-63
2022/12/29 14:13:01;;;;;;;;;;;;;;;10.84;61.36;97467.50;5063565;28;19931;-63